Time;durP1;ratioP1;P1;durP2;ratioP2;P2;SDS_P1;SDS_P2;PMS_P1;PMS_P2;Temp;Humidity;BMP_temperature;BMP_pressure;BME280_temperature;BME280_humidity;BME280_pressure;Samples;Min_cycle;Max_cycle;Signal;HPM_P1;HPM_P2
2023/06/12 00:00:54;;;;;;;7.22;3.15;;;20.40;90.00;;;;;;5121792;28;20040;-59
2023/06/12 00:03:25;;;;;;;8.68;2.90;;;20.40;90.00;;;;;;5122336;28;20079;-59
2023/06/12 00:05:52;;;;;;;8.23;3.22;;;20.40;90.10;;;;;;5122059;28;20052;-58
2023/06/12 00:08:19;;;;;;;7.60;2.40;;;20.40;90.30;;;;;;5122057;28;20040;-59
2023/06/12 00:10:46;;;;;;;5.72;2.45;;;20.20;90.60;;;;;;5121765;28;20402;-59
2023/06/12 00:13:13;;;;;;;6.40;2.92;;;20.20;90.40;;;;;;5122029;28;20077;-58
2023/06/12 00:15:38;;;;;;;7.35;2.47;;;20.20;90.50;;;;;;5121989;28;20055;-59
2023/06/12 00:18:04;;;;;;;7.55;2.78;;;20.10;90.30;;;;;;5121623;27;20056;-58
2023/06/12 00:20:31;;;;;;;8.10;2.85;;;20.10;90.60;;;;;;5122239;28;20047;-59
2023/06/12 00:22:57;;;;;;;7.97;2.92;;;20.00;90.50;;;;;;5121911;28;20040;-59
2023/06/12 00:25:23;;;;;;;7.57;2.70;;;20.10;90.50;;;;;;5121473;28;20104;-58
2023/06/12 00:27:48;;;;;;;6.13;2.40;;;20.00;90.60;;;;;;5121651;28;20431;-58
2023/06/12 00:30:15;;;;;;;6.25;2.58;;;20.00;90.60;;;;;;5121642;28;20047;-59
2023/06/12 00:32:40;;;;;;;5.80;2.55;;;20.00;91.10;;;;;;5121414;28;20039;-58
2023/06/12 00:35:06;;;;;;;7.15;3.00;;;19.90;90.70;;;;;;5121058;28;20035;-58
2023/06/12 00:37:32;;;;;;;8.23;2.65;;;19.90;90.80;;;;;;5121733;28;20044;-59
2023/06/12 00:39:58;;;;;;;6.60;2.47;;;19.90;90.90;;;;;;5121213;28;20178;-59
2023/06/12 00:42:32;;;;;;;6.30;2.58;;;19.80;91.10;;;;;;5121291;28;20179;-59
2023/06/12 00:44:57;;;;;;;8.55;2.75;;;19.80;91.40;;;;;;5121094;28;20501;-59
2023/06/12 00:47:24;;;;;;;7.50;2.83;;;19.80;91.40;;;;;;5119954;28;20071;-59
2023/06/12 00:49:50;;;;;;;6.53;2.58;;;19.70;91.60;;;;;;5121542;28;20044;-58
2023/06/12 00:52:18;;;;;;;5.90;2.60;;;19.70;91.90;;;;;;5120694;28;20084;-59
2023/06/12 00:54:46;;;;;;;9.32;3.05;;;19.60;92.00;;;;;;5121249;28;20101;-58
2023/06/12 00:57:12;;;;;;;6.22;2.70;;;19.50;92.30;;;;;;5121148;28;20054;-58
2023/06/12 00:59:37;;;;;;;5.82;2.53;;;19.50;92.10;;;;;;5121089;28;20051;-59
2023/06/12 01:02:06;;;;;;;6.35;3.15;;;19.40;92.30;;;;;;5120772;28;20036;-58
2023/06/12 01:04:33;;;;;;;9.40;3.10;;;19.40;92.40;;;;;;5120794;28;20526;-58
2023/06/12 01:07:14;;;;;;;11.60;3.85;;;19.30;92.50;;;;;;5119588;28;20099;-58
2023/06/12 01:09:48;;;;;;;7.97;2.80;;;19.30;93.60;;;;;;5120619;28;20055;-59
2023/06/12 01:12:15;;;;;;;7.78;2.50;;;19.30;93.20;;;;;;5120838;28;20043;-59
2023/06/12 01:14:45;;;;;;;6.78;2.83;;;19.20;93.00;;;;;;5120319;28;20044;-58
2023/06/12 01:17:12;;;;;;;8.33;3.17;;;19.10;93.50;;;;;;5120890;28;20047;-59
2023/06/12 01:19:38;;;;;;;8.57;3.03;;;19.20;93.80;;;;;;5118986;28;20293;-59
2023/06/12 01:22:08;;;;;;;5.95;2.80;;;19.10;93.70;;;;;;5120069;27;20089;-58
2023/06/12 01:25:07;;;;;;;6.20;2.65;;;19.10;94.00;;;;;;5120914;28;20146;-58
2023/06/12 01:27:51;;;;;;;6.72;2.90;;;19.00;94.50;;;;;;5120396;28;20517;-59
2023/06/12 01:30:42;;;;;;;10.75;2.95;;;18.90;94.60;;;;;;5120239;28;20190;-59
2023/06/12 01:33:13;;;;;;;8.25;2.95;;;18.80;94.60;;;;;;5120489;28;20076;-59
2023/06/12 01:35:43;;;;;;;6.35;2.80;;;18.80;94.80;;;;;;5120276;28;20067;-58
2023/06/12 01:38:21;;;;;;;7.40;2.60;;;18.70;94.80;;;;;;5120550;28;20399;-58
2023/06/12 01:40:50;;;;;;;8.23;2.75;;;18.80;95.30;;;;;;5120056;28;20106;-59
2023/06/12 01:43:16;;;;;;;6.53;2.92;;;18.70;95.20;;;;;;5120076;28;20050;-58
2023/06/12 01:45:42;;;;;;;7.75;2.80;;;18.60;95.10;;;;;;5120204;28;20418;-59
2023/06/12 01:48:08;;;;;;;8.23;2.92;;;18.60;95.60;;;;;;5119673;28;20732;-58
2023/06/12 01:50:33;;;;;;;7.60;3.17;;;18.60;95.70;;;;;;5120095;28;20043;-59
2023/06/12 01:52:59;;;;;;;7.75;2.95;;;18.50;96.50;;;;;;5119352;28;20487;-58
2023/06/12 01:55:27;;;;;;;7.38;2.85;;;18.50;96.80;;;;;;5120028;28;20039;-59
2023/06/12 01:57:53;;;;;;;6.90;2.78;;;18.40;96.50;;;;;;5118191;28;20047;-59
2023/06/12 02:00:19;;;;;;;8.38;3.10;;;18.40;96.80;;;;;;5119440;28;20067;-59
2023/06/12 02:02:45;;;;;;;9.95;3.40;;;18.30;97.00;;;;;;5119138;28;20047;-58
2023/06/12 02:05:11;;;;;;;9.65;3.83;;;18.30;97.30;;;;;;5119135;28;20039;-58
2023/06/12 02:07:37;;;;;;;9.27;3.17;;;18.30;97.50;;;;;;5119460;28;20036;-58
2023/06/12 02:10:03;;;;;;;10.43;3.40;;;18.20;97.50;;;;;;5118944;28;20039;-59
2023/06/12 02:12:30;;;;;;;10.18;3.10;;;18.20;97.90;;;;;;5119686;28;20051;-59
2023/06/12 02:14:59;;;;;;;7.28;3.00;;;18.20;97.80;;;;;;5117546;28;20127;-58
2023/06/12 02:17:24;;;;;;;9.40;3.72;;;18.10;98.00;;;;;;5119273;28;20059;-58
2023/06/12 02:19:50;;;;;;;7.32;3.05;;;18.00;98.10;;;;;;5119495;28;20040;-58
2023/06/12 02:22:16;;;;;;;8.57;3.78;;;18.00;98.50;;;;;;5118487;28;20054;-59
2023/06/12 02:24:42;;;;;;;7.95;3.05;;;17.90;98.60;;;;;;5119489;28;20046;-59
2023/06/12 02:27:07;;;;;;;7.65;3.60;;;17.90;99.00;;;;;;5119206;27;20099;-58
2023/06/12 02:29:33;;;;;;;8.95;3.63;;;17.90;99.00;;;;;;5119313;28;20072;-59
2023/06/12 02:31:59;;;;;;;8.93;3.60;;;17.90;99.20;;;;;;5118785;28;20050;-58
2023/06/12 02:34:24;;;;;;;11.90;5.13;;;17.80;99.40;;;;;;5118807;28;20505;-59
2023/06/12 02:36:50;;;;;;;9.85;3.78;;;17.80;99.60;;;;;;5118779;28;20104;-59
2023/06/12 02:39:16;;;;;;;6.75;3.08;;;17.80;99.90;;;;;;5118798;28;20102;-59
2023/06/12 02:41:44;;;;;;;8.07;3.35;;;17.80;99.90;;;;;;5119337;28;20047;-59
2023/06/12 02:44:10;;;;;;;7.85;3.28;;;17.80;99.90;;;;;;5117315;28;20039;-59
2023/06/12 02:46:58;;;;;;;8.70;3.40;;;17.90;99.90;;;;;;5118798;28;20047;-59
2023/06/12 02:49:30;;;;;;;8.57;3.10;;;17.80;99.90;;;;;;5118701;28;20051;-59
2023/06/12 02:51:56;;;;;;;8.05;3.30;;;17.80;99.90;;;;;;5118294;28;20036;-59
2023/06/12 02:54:24;;;;;;;7.15;3.17;;;17.70;99.90;;;;;;5119045;28;20047;-58
2023/06/12 02:56:50;;;;;;;7.30;3.30;;;17.70;99.90;;;;;;5118489;28;20048;-59
2023/06/12 02:59:18;;;;;;;7.68;3.35;;;17.60;99.90;;;;;;5118709;28;20082;-59
2023/06/12 03:01:44;;;;;;;7.75;3.60;;;17.70;99.90;;;;;;5118310;28;20044;-59
2023/06/12 03:04:24;;;;;;;9.57;3.38;;;17.70;99.90;;;;;;5118488;28;20079;-58
2023/06/12 03:06:53;;;;;;;8.30;3.30;;;17.60;99.90;;;;;;5118487;28;20494;-59
2023/06/12 03:09:19;;;;;;;7.78;3.42;;;17.60;99.90;;;;;;5117946;28;20421;-58
2023/06/12 03:11:46;;;;;;;10.20;4.15;;;17.60;99.90;;;;;;5118959;28;20043;-58
2023/06/12 03:14:12;;;;;;;6.90;3.10;;;17.50;99.90;;;;;;5117175;28;20040;-59
2023/06/12 03:16:38;;;;;;;8.35;3.90;;;17.50;99.90;;;;;;5118255;28;20052;-58
2023/06/12 03:19:05;;;;;;;8.23;3.78;;;17.50;99.90;;;;;;5118350;28;20062;-59
2023/06/12 03:21:31;;;;;;;8.68;4.47;;;17.50;99.90;;;;;;5118262;28;20039;-58
2023/06/12 03:23:56;;;;;;;7.40;3.72;;;17.50;99.90;;;;;;5118120;28;20077;-58
2023/06/12 03:26:22;;;;;;;10.45;3.85;;;17.40;99.90;;;;;;5116694;28;20043;-58
2023/06/12 03:28:48;;;;;;;9.70;3.78;;;17.40;99.90;;;;;;5117390;28;20047;-59
2023/06/12 03:31:14;;;;;;;9.88;3.50;;;17.50;99.90;;;;;;5117995;28;20042;-58
2023/06/12 03:33:40;;;;;;;14.13;4.60;;;17.40;99.90;;;;;;5118254;28;20593;-59
2023/06/12 03:36:06;;;;;;;9.25;4.20;;;17.40;99.90;;;;;;5117655;28;20054;-59
2023/06/12 03:38:32;;;;;;;10.60;3.53;;;17.40;99.90;;;;;;5118235;28;20044;-59
2023/06/12 03:40:58;;;;;;;7.00;3.58;;;17.40;99.90;;;;;;5118356;28;20126;-58
2023/06/12 03:43:23;;;;;;;8.68;3.83;;;17.40;99.90;;;;;;5116457;28;20040;-59
2023/06/12 03:45:49;;;;;;;7.85;3.90;;;17.40;99.90;;;;;;5118624;28;20167;-58
2023/06/12 03:48:15;;;;;;;7.55;3.25;;;17.40;99.90;;;;;;5117798;28;20116;-58
2023/06/12 03:50:40;;;;;;;8.13;3.42;;;17.40;99.90;;;;;;5118509;28;20047;-58
2023/06/12 03:53:06;;;;;;;10.35;3.67;;;17.40;99.90;;;;;;5117946;28;20047;-58
2023/06/12 03:55:32;;;;;;;8.27;3.63;;;17.40;99.90;;;;;;5118135;28;20097;-58
2023/06/12 03:57:58;;;;;;;10.30;3.78;;;17.40;99.90;;;;;;5117861;28;20043;-57
2023/06/12 04:00:23;;;;;;;9.68;3.90;;;17.40;99.90;;;;;;5117815;28;20095;-59
2023/06/12 04:02:49;;;;;;;9.00;3.60;;;17.40;99.90;;;;;;5118414;28;20108;-58
2023/06/12 04:05:15;;;;;;;7.95;3.88;;;17.40;99.90;;;;;;5117667;28;20071;-58
2023/06/12 04:07:41;;;;;;;8.35;4.20;;;17.40;99.90;;;;;;5118342;28;20554;-59
2023/06/12 04:10:10;;;;;;;11.23;4.22;;;17.40;99.90;;;;;;5118064;28;20079;-59
2023/06/12 04:12:36;;;;;;;8.75;4.10;;;17.40;99.90;;;;;;5117838;28;20111;-58
2023/06/12 04:15:03;;;;;;;7.55;3.63;;;17.40;99.90;;;;;;5117475;28;20053;-59
2023/06/12 04:17:29;;;;;;;11.18;4.25;;;17.40;99.90;;;;;;5117676;28;20087;-60
2023/06/12 04:19:56;;;;;;;7.15;3.75;;;17.40;99.90;;;;;;5118341;28;20138;-59
2023/06/12 04:22:25;;;;;;;7.47;4.30;;;17.40;99.90;;;;;;5116319;28;20415;-59
2023/06/12 04:24:53;;;;;;;9.25;4.30;;;17.40;99.90;;;;;;5118054;28;20048;-59
2023/06/12 04:27:19;;;;;;;10.32;3.75;;;17.40;99.90;;;;;;5121292;28;20047;-57
2023/06/12 04:29:45;;;;;;;13.30;4.10;;;17.40;99.90;;;;;;5121567;28;20142;-58
2023/06/12 04:32:15;;;;;;;7.80;3.85;;;17.40;99.90;;;;;;5121133;28;20043;-59
2023/06/12 04:34:43;;;;;;;8.50;3.83;;;17.40;99.90;;;;;;5121286;28;20048;-59
2023/06/12 04:37:11;;;;;;;9.05;3.97;;;17.50;99.90;;;;;;5120474;28;20073;-60
2023/06/12 04:39:38;;;;;;;10.15;4.05;;;17.60;99.90;;;;;;5119635;28;20043;-59
2023/06/12 04:42:05;;;;;;;10.20;4.07;;;17.60;99.90;;;;;;5121416;28;20055;-58
2023/06/12 04:44:34;;;;;;;8.75;4.38;;;17.70;99.90;;;;;;5120898;28;20046;-59
2023/06/12 04:47:04;;;;;;;8.65;3.75;;;17.70;99.90;;;;;;5119774;28;20112;-58
2023/06/12 04:49:32;;;;;;;9.27;4.13;;;17.80;99.90;;;;;;5119853;28;20473;-58
2023/06/12 04:52:00;;;;;;;8.57;4.45;;;17.80;99.90;;;;;;5120952;28;20052;-59
2023/06/12 04:54:28;;;;;;;10.95;5.10;;;17.90;99.90;;;;;;5121422;28;20051;-58
2023/06/12 04:56:54;;;;;;;10.43;4.88;;;17.90;99.90;;;;;;5120930;28;20152;-58
2023/06/12 04:59:20;;;;;;;9.52;5.32;;;17.90;99.90;;;;;;5120934;28;20091;-58
2023/06/12 05:01:47;;;;;;;8.18;5.20;;;18.00;99.90;;;;;;5120702;28;20042;-59
2023/06/12 05:04:12;;;;;;;12.95;5.30;;;18.00;99.90;;;;;;5120734;28;20062;-59
2023/06/12 05:06:39;;;;;;;11.00;5.00;;;18.10;99.90;;;;;;5120551;28;20047;-59
2023/06/12 05:09:07;;;;;;;11.20;5.82;;;18.10;99.90;;;;;;5120424;28;20120;-59
2023/06/12 05:11:33;;;;;;;12.18;5.30;;;18.10;99.90;;;;;;5120104;28;20055;-58
2023/06/12 05:13:59;;;;;;;10.45;5.20;;;18.20;99.90;;;;;;5119027;28;20035;-58
2023/06/12 05:16:24;;;;;;;8.57;4.90;;;18.30;99.90;;;;;;5120694;28;20055;-59
2023/06/12 05:18:50;;;;;;;8.52;4.90;;;18.30;99.90;;;;;;5120442;28;20392;-59
2023/06/12 05:21:18;;;;;;;9.00;5.00;;;18.40;99.90;;;;;;5120408;28;20035;-59
2023/06/12 05:23:44;;;;;;;14.25;4.70;;;18.40;99.90;;;;;;5120343;28;20048;-58
2023/06/12 05:26:10;;;;;;;11.60;4.50;;;18.50;99.90;;;;;;5119886;28;20126;-58
2023/06/12 05:28:36;;;;;;;9.73;4.50;;;18.60;99.90;;;;;;5120981;28;20517;-59
2023/06/12 05:31:04;;;;;;;8.10;4.10;;;18.70;99.90;;;;;;5120084;28;20133;-58
2023/06/12 05:33:30;;;;;;;14.50;4.70;;;18.70;99.90;;;;;;5120225;28;20131;-58
2023/06/12 05:35:55;;;;;;;10.35;4.63;;;18.80;99.90;;;;;;5120139;28;20048;-59
2023/06/12 05:38:22;;;;;;;9.05;4.65;;;18.90;99.90;;;;;;5119185;28;20040;-59
2023/06/12 05:40:47;;;;;;;10.90;4.20;;;19.00;99.90;;;;;;5120114;28;20122;-59
2023/06/12 05:43:13;;;;;;;12.27;5.05;;;19.00;99.90;;;;;;5120084;28;20047;-58
2023/06/12 05:45:39;;;;;;;8.77;4.57;;;19.10;99.90;;;;;;5118971;28;20636;-59
2023/06/12 05:48:05;;;;;;;12.50;4.68;;;19.20;99.90;;;;;;5119995;28;20124;-58
2023/06/12 05:50:30;;;;;;;11.98;4.57;;;19.30;99.90;;;;;;5120045;28;20039;-58
2023/06/12 05:52:56;;;;;;;8.80;4.88;;;19.20;99.90;;;;;;5120053;28;20031;-59
2023/06/12 05:55:21;;;;;;;11.70;4.93;;;19.30;99.90;;;;;;5119857;28;20047;-59
2023/06/12 05:57:47;;;;;;;9.45;4.85;;;19.30;99.90;;;;;;5119404;28;20031;-58
2023/06/12 06:00:14;;;;;;;9.93;5.13;;;19.50;99.90;;;;;;5119821;28;20065;-59
2023/06/12 06:02:42;;;;;;;8.93;4.35;;;19.50;99.90;;;;;;5119533;28;20047;-58
2023/06/12 06:05:09;;;;;;;9.85;4.85;;;19.60;99.90;;;;;;5119417;27;20069;-59
2023/06/12 06:07:36;;;;;;;9.13;4.43;;;19.60;99.90;;;;;;5118438;28;20058;-58
2023/06/12 06:10:03;;;;;;;9.32;4.47;;;19.70;99.90;;;;;;5118538;28;20040;-59
2023/06/12 06:12:29;;;;;;;10.80;4.82;;;19.70;99.90;;;;;;5119261;28;20202;-58
2023/06/12 06:14:55;;;;;;;12.77;4.63;;;19.80;99.90;;;;;;5119093;28;20052;-59
2023/06/12 06:17:21;;;;;;;9.52;4.97;;;19.90;99.90;;;;;;5118375;28;20094;-59
2023/06/12 06:19:46;;;;;;;10.63;4.75;;;20.00;99.90;;;;;;5118117;28;20032;-58
2023/06/12 06:22:12;;;;;;;10.18;4.70;;;20.10;99.90;;;;;;5118308;28;20044;-58
2023/06/12 06:24:37;;;;;;;11.13;5.43;;;20.10;99.90;;;;;;5118168;28;20071;-59
2023/06/12 06:27:04;;;;;;;11.65;5.55;;;20.20;99.90;;;;;;5118713;28;20616;-58
2023/06/12 06:29:29;;;;;;;10.55;4.97;;;20.40;99.90;;;;;;5119099;28;20048;-58
2023/06/12 06:31:55;;;;;;;11.60;5.18;;;20.30;99.90;;;;;;5118265;28;20050;-57
2023/06/12 06:34:21;;;;;;;8.52;5.10;;;20.40;99.90;;;;;;5118799;28;20051;-58
2023/06/12 06:36:47;;;;;;;11.25;5.65;;;20.50;99.90;;;;;;5118679;28;20086;-58
2023/06/12 06:39:13;;;;;;;12.65;4.85;;;20.50;99.90;;;;;;5115564;28;20920;-58
2023/06/12 06:41:38;;;;;;;11.18;5.50;;;20.70;99.90;;;;;;5115871;28;20051;-58
2023/06/12 06:44:04;;;;;;;10.32;5.50;;;20.70;99.90;;;;;;5115138;28;20089;-58
2023/06/12 06:46:30;;;;;;;10.52;5.18;;;20.70;99.90;;;;;;5115294;28;20109;-58
2023/06/12 06:48:55;;;;;;;11.43;4.68;;;20.80;99.90;;;;;;5115160;28;20040;-59
2023/06/12 06:51:21;;;;;;;10.98;5.20;;;21.00;99.90;;;;;;5115222;28;20399;-58
2023/06/12 06:53:47;;;;;;;18.00;6.30;;;21.00;99.90;;;;;;5115173;28;20122;-58
2023/06/12 06:56:12;;;;;;;10.02;4.88;;;21.00;99.90;;;;;;5115180;28;20058;-59
2023/06/12 06:58:38;;;;;;;10.70;5.45;;;21.10;99.90;;;;;;5115867;28;20044;-58
2023/06/12 07:01:04;;;;;;;10.95;5.07;;;21.20;99.90;;;;;;5113845;28;20069;-58
2023/06/12 07:03:29;;;;;;;12.05;5.28;;;21.20;99.90;;;;;;5114640;28;20052;-58
2023/06/12 07:05:55;;;;;;;13.43;5.60;;;21.20;99.90;;;;;;5115502;28;20398;-56
2023/06/12 07:08:20;;;;;;;10.40;5.65;;;21.30;99.90;;;;;;5115261;28;20109;-56
2023/06/12 07:10:46;;;;;;;9.80;5.00;;;21.40;99.90;;;;;;5114386;28;20054;-57
2023/06/12 07:13:12;;;;;;;14.05;6.70;;;21.50;99.90;;;;;;5113902;28;20047;-56
2023/06/12 07:15:38;;;;;;;43.92;15.18;;;21.50;99.90;;;;;;5113867;28;20111;-56
2023/06/12 07:18:04;;;;;;;10.25;6.47;;;21.60;99.90;;;;;;5114571;28;20256;-56
2023/06/12 07:20:29;;;;;;;10.85;5.55;;;21.60;99.90;;;;;;5115320;28;20095;-56
2023/06/12 07:22:55;;;;;;;10.60;5.47;;;21.50;99.90;;;;;;5115113;28;20040;-56
2023/06/12 07:25:21;;;;;;;54.13;19.52;;;21.60;99.90;;;;;;5114967;28;20044;-56
2023/06/12 07:27:46;;;;;;;12.15;5.65;;;21.60;99.90;;;;;;5114373;28;20058;-56
2023/06/12 07:30:12;;;;;;;9.95;5.32;;;21.70;99.90;;;;;;5114784;28;20043;-56
2023/06/12 07:32:38;;;;;;;15.50;6.00;;;21.80;99.90;;;;;;5115060;28;20078;-57
2023/06/12 07:35:05;;;;;;;13.98;5.72;;;22.00;99.90;;;;;;5116459;28;20043;-56
2023/06/12 07:37:35;;;;;;;40.38;15.20;;;22.10;99.90;;;;;;5117900;28;20062;-56
2023/06/12 07:40:05;;;;;;;13.10;6.75;;;22.10;99.90;;;;;;5118366;28;20533;-57
2023/06/12 07:42:30;;;;;;;24.50;9.50;;;22.10;99.90;;;;;;5118083;28;20097;-56
2023/06/12 07:44:56;;;;;;;14.27;5.68;;;22.10;99.90;;;;;;5116522;28;20044;-56
2023/06/12 07:47:22;;;;;;;12.15;6.07;;;22.20;99.90;;;;;;5117708;28;20483;-56
2023/06/12 07:49:47;;;;;;;12.23;6.32;;;22.30;99.90;;;;;;5118455;28;20050;-56
2023/06/12 07:52:13;;;;;;;10.57;5.90;;;22.30;99.90;;;;;;5117921;28;20054;-56
2023/06/12 07:54:39;;;;;;;12.57;6.43;;;22.40;99.90;;;;;;5118387;28;20036;-57
2023/06/12 07:57:06;;;;;;;10.80;6.03;;;22.50;99.90;;;;;;5117876;28;20039;-57
2023/06/12 07:59:32;;;;;;;13.70;6.43;;;22.50;99.90;;;;;;5117614;28;20048;-56
2023/06/12 08:01:58;;;;;;;11.82;6.40;;;22.50;99.90;;;;;;5121168;28;20047;-56
2023/06/12 08:04:24;;;;;;;15.50;8.75;;;22.60;99.90;;;;;;5121940;28;20052;-57
2023/06/12 08:06:50;;;;;;;11.75;6.47;;;22.50;99.90;;;;;;5121956;28;20047;-56
2023/06/12 08:09:15;;;;;;;94.07;32.63;;;22.70;99.90;;;;;;5121722;28;20067;-56
2023/06/12 08:11:41;;;;;;;29.30;13.57;;;22.70;99.90;;;;;;5122321;28;20050;-57
2023/06/12 08:14:08;;;;;;;12.55;6.68;;;22.90;99.90;;;;;;5121292;28;20035;-56
2023/06/12 08:16:33;;;;;;;14.82;7.03;;;23.00;99.90;;;;;;5121558;28;20111;-57
2023/06/12 08:18:59;;;;;;;9.05;6.05;;;23.00;99.90;;;;;;5121523;28;20040;-55
2023/06/12 08:21:25;;;;;;;18.45;8.07;;;23.00;99.90;;;;;;5121967;28;20051;-56
2023/06/12 08:23:51;;;;;;;12.77;7.00;;;23.10;99.90;;;;;;5121720;28;20120;-56
2023/06/12 08:26:17;;;;;;;47.50;18.55;;;23.00;99.90;;;;;;5121341;28;20051;-56
2023/06/12 08:28:48;;;;;;;63.80;32.63;;;23.10;99.90;;;;;;5122026;28;20103;-56
2023/06/12 08:31:14;;;;;;;33.17;17.80;;;23.10;99.90;;;;;;5121036;28;20066;-56
2023/06/12 08:33:40;;;;;;;18.30;8.57;;;23.20;99.90;;;;;;5121347;28;20124;-56
2023/06/12 08:36:06;;;;;;;19.08;6.28;;;23.20;99.90;;;;;;5121565;28;20039;-56
2023/06/12 08:38:31;;;;;;;11.98;6.50;;;23.30;99.90;;;;;;5121731;28;20410;-59
2023/06/12 08:41:00;;;;;;;9.90;5.53;;;23.30;99.90;;;;;;5120083;28;20051;-58
2023/06/12 08:43:29;;;;;;;14.38;8.20;;;23.40;99.80;;;;;;5120479;28;20035;-58
2023/06/12 08:45:57;;;;;;;9.30;5.70;;;23.40;99.40;;;;;;5120206;28;20051;-58
2023/06/12 08:48:26;;;;;;;8.90;5.70;;;23.40;99.50;;;;;;5120901;28;20062;-57
2023/06/12 08:50:52;;;;;;;8.65;5.15;;;23.50;99.90;;;;;;5121125;28;20067;-58
2023/06/12 08:53:19;;;;;;;11.73;5.63;;;23.60;98.40;;;;;;5120371;27;20798;-58
2023/06/12 08:55:45;;;;;;;11.85;5.38;;;23.70;98.60;;;;;;5120253;28;20044;-58
2023/06/12 08:58:11;;;;;;;10.10;5.78;;;23.70;98.30;;;;;;5101937;28;20073;-56
2023/06/12 09:00:37;;;;;;;8.93;4.30;;;23.80;97.60;;;;;;5117224;28;20036;-56
2023/06/12 09:03:06;;;;;;;7.90;4.40;;;23.80;96.30;;;;;;5120020;28;20042;-57
2023/06/12 09:05:33;;;;;;;9.32;4.60;;;24.00;96.50;;;;;;5120655;28;20120;-57
2023/06/12 09:08:00;;;;;;;9.52;4.88;;;24.00;95.60;;;;;;5120501;28;20042;-57
2023/06/12 09:10:26;;;;;;;9.35;4.68;;;24.10;95.60;;;;;;5120402;28;20040;-58
2023/06/12 09:12:56;;;;;;;10.32;5.20;;;24.20;95.50;;;;;;5119561;28;20043;-57
2023/06/12 09:15:23;;;;;;;11.88;4.40;;;24.20;96.00;;;;;;5120705;28;20083;-57
2023/06/12 09:17:53;;;;;;;10.55;4.28;;;24.50;95.80;;;;;;5120433;28;20047;-58
2023/06/12 09:20:26;;;;;;;8.85;4.28;;;24.40;93.70;;;;;;5120821;28;20104;-58
2023/06/12 09:22:52;;;;;;;8.73;4.57;;;24.40;93.90;;;;;;5120652;28;20072;-57
2023/06/12 09:25:21;;;;;;;10.05;4.20;;;24.70;93.90;;;;;;5119617;28;20107;-57
2023/06/12 09:27:47;;;;;;;8.77;4.35;;;24.60;93.80;;;;;;5119650;28;20383;-57
2023/06/12 09:30:13;;;;;;;9.52;4.30;;;24.60;92.90;;;;;;5117784;28;20047;-58
2023/06/12 09:32:45;;;;;;;9.65;4.80;;;24.80;93.70;;;;;;5120205;28;20066;-57
2023/06/12 09:35:12;;;;;;;11.07;4.75;;;24.80;93.20;;;;;;5119212;28;20107;-57
2023/06/12 09:37:39;;;;;;;8.63;4.53;;;25.00;93.20;;;;;;5120108;28;20103;-57
2023/06/12 09:40:13;;;;;;;48.50;13.02;;;25.00;92.80;;;;;;5119624;27;20048;-58
2023/06/12 09:42:40;;;;;;;11.50;5.22;;;25.00;92.80;;;;;;5119543;28;20051;-57
2023/06/12 09:45:14;;;;;;;9.45;4.50;;;25.10;92.40;;;;;;5119556;28;20057;-57
2023/06/12 09:47:41;;;;;;;11.38;4.90;;;25.10;91.90;;;;;;5119781;27;20043;-57
2023/06/12 09:50:07;;;;;;;14.57;6.18;;;25.00;92.10;;;;;;5120356;28;20089;-57
2023/06/12 09:52:35;;;;;;;109.35;50.85;;;25.00;92.40;;;;;;5119334;27;20052;-58
2023/06/12 09:55:05;;;;;;;12.40;7.47;;;22.30;99.90;;;;;;5119172;28;20099;-57
2023/06/12 09:57:37;;;;;;;10.70;5.38;;;22.30;99.90;;;;;;5119670;28;20121;-57
2023/06/12 10:00:11;;;;;;;;;;;22.80;99.90;;;;;;5120442;28;20044;-57
2023/06/12 10:02:41;;;;;;;20.05;8.18;;;23.10;99.90;;;;;;5119384;28;19926;-57
2023/06/12 10:05:16;;;;;;;11.50;6.78;;;23.50;99.90;;;;;;5119043;28;20047;-57
2023/06/12 10:07:51;;;;;;;17.10;7.25;;;23.80;99.90;;;;;;5119201;28;20539;-57
2023/06/12 10:10:22;;;;;;;11.10;5.63;;;24.10;99.80;;;;;;5119157;28;20435;-57
2023/06/12 10:12:50;;;;;;;10.57;5.43;;;24.20;98.10;;;;;;5119162;28;20044;-57
2023/06/12 10:15:17;;;;;;;11.15;6.82;;;24.40;97.30;;;;;;5118761;28;20123;-57
2023/06/12 10:17:43;;;;;;;14.02;6.07;;;24.50;96.40;;;;;;5118864;28;20040;-57
2023/06/12 10:20:10;;;;;;;9.73;5.32;;;24.70;95.70;;;;;;5119199;28;20043;-57
2023/06/12 10:22:39;;;;;;;11.45;5.93;;;24.90;94.80;;;;;;5119126;28;20047;-57
2023/06/12 10:25:08;;;;;;;32.10;13.95;;;25.10;94.40;;;;;;5118689;28;20099;-58
2023/06/12 10:27:36;;;;;;;13.32;6.40;;;25.20;94.20;;;;;;5118604;28;20055;-58
2023/06/12 10:30:04;;;;;;;10.85;6.15;;;25.40;94.20;;;;;;5118914;28;20091;-58
2023/06/12 10:32:32;;;;;;;8.48;5.35;;;25.40;94.30;;;;;;5118471;28;20053;-58
2023/06/12 10:34:58;;;;;;;9.35;4.90;;;25.40;93.70;;;;;;5117852;28;20404;-57
2023/06/12 10:37:27;;;;;;;11.75;5.13;;;25.60;93.50;;;;;;5118926;27;20047;-58
2023/06/12 10:40:05;;;;;;;12.00;5.93;;;25.50;92.50;;;;;;5118698;28;20035;-57
2023/06/12 10:42:57;;;;;;;9.10;4.97;;;25.50;91.00;;;;;;5116574;28;20047;-57
2023/06/12 10:45:33;;;;;;;9.00;5.38;;;25.70;90.80;;;;;;5115587;28;20055;-57
2023/06/12 10:48:05;;;;;;;10.73;5.30;;;25.80;91.20;;;;;;5117053;28;20077;-58
2023/06/12 10:50:35;;;;;;;9.23;5.10;;;25.70;90.40;;;;;;5118852;28;20071;-56
2023/06/12 10:53:03;;;;;;;9.73;5.32;;;25.90;89.10;;;;;;5117405;28;20047;-57
2023/06/12 10:55:28;;;;;;;8.63;4.97;;;25.90;89.80;;;;;;5118824;28;20109;-58
2023/06/12 10:57:56;;;;;;;9.32;5.60;;;26.20;90.20;;;;;;5118813;28;20039;-57
2023/06/12 11:00:23;;;;;;;12.00;5.55;;;26.30;90.10;;;;;;5118296;28;20039;-58
2023/06/12 11:02:57;;;;;;;10.48;5.20;;;26.40;89.20;;;;;;5118787;28;20071;-58
2023/06/12 11:05:24;;;;;;;9.35;5.05;;;26.40;88.40;;;;;;5118187;28;20048;-58
2023/06/12 11:07:50;;;;;;;9.20;4.85;;;26.50;89.70;;;;;;5118277;28;20068;-58
2023/06/12 11:10:16;;;;;;;8.77;4.80;;;26.70;90.00;;;;;;5118381;28;20043;-58
2023/06/12 11:12:53;;;;;;;7.75;4.60;;;26.80;85.10;;;;;;5118346;28;20035;-58
2023/06/12 11:15:20;;;;;;;29.00;7.40;;;26.80;82.40;;;;;;5118215;28;20043;-58
2023/06/12 11:17:47;;;;;;;11.10;4.97;;;26.80;84.30;;;;;;5118121;28;20082;-58
2023/06/12 11:20:14;;;;;;;11.57;5.60;;;27.10;85.00;;;;;;5118785;28;20042;-58
2023/06/12 11:22:40;;;;;;;12.13;5.60;;;27.20;85.90;;;;;;5118394;28;20048;-58
2023/06/12 11:25:06;;;;;;;11.73;5.18;;;27.20;84.50;;;;;;5117718;28;20611;-57
2023/06/12 11:27:36;;;;;;;8.63;5.00;;;27.20;85.50;;;;;;5116684;28;20051;-58
2023/06/12 11:30:12;;;;;;;9.35;5.00;;;27.50;84.80;;;;;;5117835;28;20101;-57
2023/06/12 11:32:39;;;;;;;8.63;5.30;;;27.40;83.50;;;;;;5118424;28;20058;-58
2023/06/12 11:35:10;;;;;;;9.18;4.82;;;27.40;84.30;;;;;;5116363;28;20055;-58
2023/06/12 11:37:39;;;;;;;11.68;5.30;;;27.40;82.70;;;;;;5117926;28;20104;-58
2023/06/12 11:40:11;;;;;;;11.25;5.55;;;27.60;81.30;;;;;;5117511;28;20129;-58
2023/06/12 11:42:39;;;;;;;8.80;5.35;;;27.80;79.00;;;;;;5117256;28;20079;-58
2023/06/12 11:45:13;;;;;;;32.72;7.32;;;27.90;81.30;;;;;;5117600;28;20051;-58
2023/06/12 11:47:43;;;;;;;11.50;6.63;;;28.00;80.10;;;;;;5116920;28;20071;-58
2023/06/12 11:50:15;;;;;;;9.18;5.57;;;28.10;80.90;;;;;;5117584;28;20036;-58
2023/06/12 11:52:43;;;;;;;21.23;9.60;;;28.20;80.10;;;;;;5116334;28;20070;-58
2023/06/12 11:55:21;;;;;;;12.80;6.20;;;28.00;80.50;;;;;;5117489;28;20068;-58
2023/06/12 11:57:49;;;;;;;11.77;5.65;;;28.10;78.50;;;;;;5118076;28;20122;-57
2023/06/12 12:00:20;;;;;;;8.70;6.60;;;28.10;81.40;;;;;;5117434;28;20077;-58
2023/06/12 12:02:51;;;;;;;10.00;6.13;;;28.00;76.80;;;;;;5118259;28;20487;-58
2023/06/12 12:05:23;;;;;;;;;;;27.90;80.00;;;;;;5117010;28;20048;-58
2023/06/12 12:07:57;;;;;;;9.88;5.70;;;27.90;75.80;;;;;;5117456;28;20026;-57
2023/06/12 12:10:24;;;;;;;9.00;5.85;;;28.00;78.90;;;;;;5115991;28;20047;-58
2023/06/12 12:12:58;;;;;;;8.57;5.60;;;28.00;76.90;;;;;;5117863;28;20047;-57
2023/06/12 12:15:24;;;;;;;11.45;5.97;;;28.10;77.60;;;;;;5117822;28;20048;-58
2023/06/12 12:17:49;;;;;;;8.75;5.45;;;28.20;76.30;;;;;;5117573;28;20103;-58
2023/06/12 12:20:16;;;;;;;7.60;5.53;;;28.40;77.50;;;;;;5118075;28;20040;-58
2023/06/12 12:22:43;;;;;;;8.15;5.28;;;28.30;75.40;;;;;;5117823;28;20040;-58
2023/06/12 12:25:17;;;;;;;8.50;5.55;;;28.60;76.40;;;;;;5117783;28;20040;-57
2023/06/12 12:27:44;;;;;;;10.75;5.45;;;28.60;75.50;;;;;;5117597;28;20127;-57
2023/06/12 12:30:10;;;;;;;10.75;5.80;;;28.60;76.30;;;;;;5117774;28;20667;-58
2023/06/12 12:32:36;;;;;;;8.70;5.53;;;28.60;75.70;;;;;;5117580;28;20070;-57
2023/06/12 12:35:03;;;;;;;9.25;6.53;;;28.60;75.30;;;;;;5117555;28;20131;-58
2023/06/12 12:37:29;;;;;;;10.15;5.60;;;28.70;70.90;;;;;;5117456;28;20051;-58
2023/06/12 12:39:54;;;;;;;10.52;6.50;;;28.80;71.70;;;;;;5117804;28;20074;-58
2023/06/12 12:42:20;;;;;;;9.15;5.90;;;29.00;71.00;;;;;;5117448;28;20059;-58
2023/06/12 12:44:46;;;;;;;9.95;6.13;;;28.90;70.10;;;;;;5115891;28;20059;-58